Time;durP1;ratioP1;P1;durP2;ratioP2;P2;SDS_P1;SDS_P2;PMS_P1;PMS_P2;Temp;Humidity;BMP_temperature;BMP_pressure;BME280_temperature;BME280_humidity;BME280_pressure;Samples;Min_cycle;Max_cycle;Signal;HPM_P1;HPM_P2
2023/08/27 00:00:24;;;;;;;;;;;17.10;82.40;;;;;;4988577;28;19926;-68
2023/08/27 00:02:51;;;;;;;;;;;17.10;82.40;;;;;;4989257;28;19956;-69
2023/08/27 00:05:18;;;;;;;;;;;17.10;82.70;;;;;;4988387;28;19929;-69
2023/08/27 00:07:45;;;;;;;;;;;17.00;82.80;;;;;;4989422;28;19965;-68
2023/08/27 00:10:14;;;;;;;;;;;17.10;82.80;;;;;;4988647;28;19934;-69
2023/08/27 00:12:41;;;;;;;;;;;17.00;83.00;;;;;;4990057;28;20689;-68
2023/08/27 00:15:09;;;;;;;;;;;17.00;82.90;;;;;;4989030;28;20004;-69
2023/08/27 00:17:36;;;;;;;;;;;16.90;83.10;;;;;;4988088;28;19934;-69
2023/08/27 00:20:06;;;;;;;;;;;16.90;83.20;;;;;;4988855;28;19933;-69
2023/08/27 00:22:34;;;;;;;;;;;16.90;83.30;;;;;;4988740;28;20024;-68
2023/08/27 00:25:01;;;;;;;;;;;16.90;83.40;;;;;;4987878;28;19937;-69
2023/08/27 00:27:29;;;;;;;;;;;16.80;83.60;;;;;;4988508;28;19929;-68
2023/08/27 00:29:57;;;;;;;;;;;16.90;83.60;;;;;;5003165;28;19934;-68
2023/08/27 00:32:26;;;;;;;;;;;16.90;83.30;;;;;;5003769;28;19972;-69
2023/08/27 00:34:54;;;;;;;;;;;16.80;83.50;;;;;;5001913;28;19933;-69
2023/08/27 00:37:23;;;;;;;;;;;16.90;83.50;;;;;;4987078;28;20037;-69
2023/08/27 00:39:50;;;;;;;;;;;16.80;83.70;;;;;;5003767;28;19972;-69
2023/08/27 00:42:17;;;;;;;;;;;16.80;83.70;;;;;;4987948;28;19929;-68
2023/08/27 00:44:45;;;;;;;;;;;16.70;83.80;;;;;;4988307;28;19937;-69
2023/08/27 00:47:14;;;;;;;;;;;16.70;83.80;;;;;;5002976;28;19930;-69
2023/08/27 00:49:42;;;;;;;;;;;16.70;83.90;;;;;;4987529;28;20436;-68
2023/08/27 00:52:10;;;;;;;;;;;16.80;83.90;;;;;;5004089;28;19926;-68
2023/08/27 00:54:38;;;;;;;;;;;16.70;83.90;;;;;;4981673;28;19930;-69
2023/08/27 00:57:06;;;;;;;;;;;16.70;83.90;;;;;;4958786;28;19981;-68
2023/08/27 00:59:34;;;;;;;;;;;16.70;83.90;;;;;;4967838;28;20080;-69
2023/08/27 01:02:04;;;;;;;;;;;16.70;84.00;;;;;;4956796;28;20390;-70
2023/08/27 01:04:31;;;;;;;;;;;16.70;83.90;;;;;;4980448;28;19985;-74
2023/08/27 01:07:02;;;;;;;;;;;16.70;83.90;;;;;;4971581;28;20397;-74
2023/08/27 01:09:32;;;;;;;;;;;16.60;84.00;;;;;;4987272;28;20274;-73
2023/08/27 01:12:08;;;;;;;;;;;16.60;84.30;;;;;;4988652;28;19980;-72
2023/08/27 01:14:37;;;;;;;;;;;16.60;84.30;;;;;;4988141;28;19930;-74
2023/08/27 01:17:06;;;;;;;;;;;16.70;84.20;;;;;;4987378;28;19934;-76
2023/08/27 01:19:34;;;;;;;;;;;16.70;83.90;;;;;;4986825;28;19984;-74
2023/08/27 01:22:02;;;;;;;;;;;16.70;83.70;;;;;;5003328;28;20012;-74
2023/08/27 01:24:29;;;;;;;;;;;16.70;83.50;;;;;;4988436;28;20296;-73
2023/08/27 01:26:59;;;;;;;;;;;16.60;83.90;;;;;;4988320;28;19934;-74
2023/08/27 01:29:40;;;;;;;;;;;16.60;84.20;;;;;;4987541;28;19996;-74
2023/08/27 01:32:12;;;;;;;;;;;16.50;84.30;;;;;;4986893;28;19936;-73
2023/08/27 01:34:40;;;;;;;;;;;16.50;84.30;;;;;;4985190;28;19925;-75
2023/08/27 01:37:09;;;;;;;;;;;16.50;84.40;;;;;;4988337;28;19929;-73
2023/08/27 01:39:36;;;;;;;;;;;16.50;84.10;;;;;;4974857;28;19933;-74
2023/08/27 01:42:03;;;;;;;;;;;16.50;84.30;;;;;;4977010;28;20441;-76
2023/08/27 01:44:31;;;;;;;;;;;16.50;84.40;;;;;;4987560;28;20016;-73
2023/08/27 01:46:59;;;;;;;;;;;16.50;84.50;;;;;;5003590;28;19930;-74
2023/08/27 01:49:26;;;;;;;;;;;16.50;84.30;;;;;;4990651;28;19957;-73
2023/08/27 01:51:53;;;;;;;;;;;16.40;84.50;;;;;;4992244;28;20023;-73
2023/08/27 01:54:22;;;;;;;;;;;16.50;84.50;;;;;;4991677;28;20017;-74
2023/08/27 01:56:49;;;;;;;;;;;16.50;84.50;;;;;;4992204;28;20022;-76
2023/08/27 01:59:16;;;;;;;;;;;16.50;84.50;;;;;;5005287;28;19949;-73
2023/08/27 02:01:44;;;;;;;;;;;16.40;84.70;;;;;;5006777;28;20020;-73
2023/08/27 02:04:11;;;;;;;;;;;16.40;84.60;;;;;;4990013;28;19964;-73
2023/08/27 02:06:38;;;;;;;;;;;16.40;84.70;;;;;;4992370;28;19930;-73
2023/08/27 02:09:06;;;;;;;;;;;16.40;84.70;;;;;;4990988;28;20397;-76
2023/08/27 02:11:34;;;;;;;;;;;16.40;84.80;;;;;;5006709;28;19951;-69
2023/08/27 02:14:05;;;;;;;;;;;16.40;84.80;;;;;;4990411;28;19930;-69
2023/08/27 02:16:33;;;;;;;;;;;16.40;84.80;;;;;;4991510;28;19926;-68
2023/08/27 02:19:00;;;;;;;;;;;16.40;84.80;;;;;;4990289;28;19933;-68
2023/08/27 02:21:28;;;;;;;;;;;16.40;84.90;;;;;;4989954;28;20317;-69
2023/08/27 02:23:56;;;;;;;;;;;16.40;85.00;;;;;;5004954;28;19950;-69
2023/08/27 02:26:23;;;;;;;;;;;16.50;84.90;;;;;;5005623;28;20054;-69
2023/08/27 02:28:52;;;;;;;;;;;16.50;85.00;;;;;;4989946;28;20376;-68
2023/08/27 02:31:19;;;;;;;;;;;16.50;85.10;;;;;;4990798;28;20523;-68
2023/08/27 02:33:46;;;;;;;;;;;16.50;85.10;;;;;;4991458;28;20420;-68
2023/08/27 02:36:13;;;;;;;;;;;16.50;85.10;;;;;;4990635;28;19984;-69
2023/08/27 02:38:41;;;;;;;;;;;16.50;85.20;;;;;;4991098;28;19930;-68
2023/08/27 02:41:08;;;;;;;;;;;16.60;85.10;;;;;;4990527;28;19984;-70
2023/08/27 02:43:39;;;;;;;;;;;16.60;85.00;;;;;;4991315;28;20648;-69
2023/08/27 02:46:14;;;;;;;;;;;16.60;84.90;;;;;;4990410;28;19940;-68
2023/08/27 02:48:41;;;;;;;;;;;16.60;84.70;;;;;;4991324;28;19930;-69
2023/08/27 02:51:08;;;;;;;;;;;16.50;84.90;;;;;;4988642;28;19981;-69
2023/08/27 02:53:35;;;;;;;;;;;16.50;84.80;;;;;;4991332;28;20011;-68
2023/08/27 02:56:02;;;;;;;;;;;16.60;84.70;;;;;;4989172;28;19933;-68
2023/08/27 02:58:30;;;;;;;;;;;16.60;84.90;;;;;;4989858;28;19926;-68
2023/08/27 03:00:57;;;;;;;;;;;16.60;84.90;;;;;;4989184;28;19985;-69
2023/08/27 03:03:26;;;;;;;;;;;16.50;85.00;;;;;;5004045;28;19929;-68
2023/08/27 03:05:53;;;;;;;;;;;16.50;85.10;;;;;;4991243;28;19933;-68
2023/08/27 03:08:20;;;;;;;;;;;16.60;84.80;;;;;;4969808;28;19937;-69
2023/08/27 03:10:48;;;;;;;;;;;16.60;84.60;;;;;;4959259;28;19926;-70
2023/08/27 03:13:15;;;;;;;;;;;16.60;84.80;;;;;;4981092;28;20404;-68
2023/08/27 03:15:42;;;;;;;;;;;16.60;84.80;;;;;;4989970;28;20024;-69
2023/08/27 03:18:10;;;;;;;;;;;16.60;84.80;;;;;;5003626;28;20016;-69
2023/08/27 03:20:39;;;;;;;;;;;16.60;85.00;;;;;;4984212;28;19926;-68
2023/08/27 03:23:06;;;;;;;;;;;16.60;85.30;;;;;;4985001;28;19929;-69
2023/08/27 03:25:33;;;;;;;;;;;16.60;85.20;;;;;;4979066;28;20024;-68
2023/08/27 03:27:59;;;;;;;;;;;16.60;85.10;;;;;;4989831;28;21269;-70
2023/08/27 03:30:26;;;;;;;;;;;16.60;85.30;;;;;;4994295;28;19972;-69
2023/08/27 03:32:54;;;;;;;;;;;16.50;85.30;;;;;;4977582;28;20029;-70
2023/08/27 03:35:21;;;;;;;;;;;16.50;85.30;;;;;;4988791;28;21883;-70
2023/08/27 03:37:50;;;;;;;;;;;16.50;85.40;;;;;;4989670;28;20044;-69
2023/08/27 03:40:18;;;;;;;;;;;16.50;85.40;;;;;;4977293;28;19936;-70
2023/08/27 03:42:45;;;;;;;;;;;16.60;85.30;;;;;;4990474;28;20013;-69
2023/08/27 03:45:12;;;;;;;;;;;16.50;85.30;;;;;;4989228;28;20374;-69
2023/08/27 03:47:39;;;;;;;;;;;16.50;85.30;;;;;;4977629;28;19976;-71
2023/08/27 03:50:07;;;;;;;;;;;16.60;85.40;;;;;;4989477;28;19942;-70
2023/08/27 03:52:34;;;;;;;;;;;16.60;85.40;;;;;;4989747;28;19932;-69
2023/08/27 03:55:02;;;;;;;;;;;16.60;85.30;;;;;;4990078;28;19929;-70
2023/08/27 03:57:30;;;;;;;;;;;16.60;85.30;;;;;;4993010;28;20013;-69
2023/08/27 03:59:57;;;;;;;;;;;16.60;85.30;;;;;;4989528;28;20016;-69
2023/08/27 04:02:24;;;;;;;;;;;16.60;85.10;;;;;;4991503;28;19929;-69
2023/08/27 04:04:51;;;;;;;;;;;16.60;85.00;;;;;;4977255;28;19964;-70
2023/08/27 04:07:20;;;;;;;;;;;16.60;85.00;;;;;;4987564;28;19929;-69
2023/08/27 04:09:47;;;;;;;;;;;16.60;85.10;;;;;;4977258;28;19934;-69
2023/08/27 04:12:16;;;;;;;;;;;16.60;85.00;;;;;;4970105;28;19958;-69
2023/08/27 04:14:44;;;;;;;;;;;16.60;85.20;;;;;;4995079;28;19926;-69
2023/08/27 04:17:11;;;;;;;;;;;16.60;85.10;;;;;;4989030;28;19934;-68
2023/08/27 04:19:38;;;;;;;;;;;16.60;85.20;;;;;;4977135;28;19940;-70
2023/08/27 04:22:05;;;;;;;;;;;16.60;85.40;;;;;;4988732;28;19930;-68
2023/08/27 04:24:33;;;;;;;;;;;16.60;85.50;;;;;;4994753;28;19960;-69
2023/08/27 04:27:00;;;;;;;;;;;16.50;85.70;;;;;;4989619;28;19929;-70
2023/08/27 04:29:28;;;;;;;;;;;16.50;85.70;;;;;;4971894;28;19936;-69
2023/08/27 04:31:55;;;;;;;;;;;16.50;85.60;;;;;;4976285;28;19926;-68
2023/08/27 04:34:22;;;;;;;;;;;16.60;85.30;;;;;;4986040;28;19978;-70
2023/08/27 04:36:49;;;;;;;;;;;16.60;85.10;;;;;;4977737;28;19932;-69
2023/08/27 04:39:16;;;;;;;;;;;16.60;85.10;;;;;;4986068;28;20005;-68
2023/08/27 04:41:44;;;;;;;;;;;16.60;85.00;;;;;;4989376;28;19933;-69
2023/08/27 04:44:11;;;;;;;;;;;16.60;85.10;;;;;;4987153;28;19961;-70
2023/08/27 04:46:39;;;;;;;;;;;16.60;85.30;;;;;;4978048;28;20374;-70
2023/08/27 04:49:07;;;;;;;;;;;16.60;85.30;;;;;;4986997;28;20047;-68
2023/08/27 04:51:34;;;;;;;;;;;16.60;85.30;;;;;;4988759;28;20008;-69
2023/08/27 04:54:03;;;;;;;;;;;16.60;85.10;;;;;;4988579;28;19930;-68
2023/08/27 04:56:30;;;;;;;;;;;16.60;85.20;;;;;;4976022;28;20061;-68
2023/08/27 04:58:57;;;;;;;;;;;16.60;85.30;;;;;;4977488;28;20013;-68
2023/08/27 05:01:25;;;;;;;;;;;16.50;85.50;;;;;;4969791;28;19936;-69
2023/08/27 05:03:53;;;;;;;;;;;16.50;85.40;;;;;;4977012;28;19973;-69
2023/08/27 05:06:20;;;;;;;;;;;16.60;85.20;;;;;;4976208;28;20389;-68
2023/08/27 05:08:47;;;;;;;;;;;16.60;85.20;;;;;;4975068;28;19973;-69
2023/08/27 05:11:15;;;;;;;;;;;16.60;85.20;;;;;;4992439;28;19929;-67
2023/08/27 05:13:43;;;;;;;;;;;16.60;85.30;;;;;;4988831;28;20077;-68
2023/08/27 05:16:10;;;;;;;;;;;16.60;85.50;;;;;;4977662;28;19925;-69
2023/08/27 05:18:37;;;;;;;;;;;16.60;85.50;;;;;;4974959;28;19936;-70
2023/08/27 05:21:05;;;;;;;;;;;16.50;85.70;;;;;;4987156;28;19996;-69
2023/08/27 05:23:33;;;;;;;;;;;16.50;85.80;;;;;;4990334;28;19936;-67
2023/08/27 05:26:00;;;;;;;;;;;16.50;85.80;;;;;;4981167;28;19944;-68
2023/08/27 05:28:27;;;;;;;;;;;16.60;85.70;;;;;;4990568;28;19972;-68
2023/08/27 05:30:54;;;;;;;;;;;16.60;85.60;;;;;;4991993;28;19929;-68
2023/08/27 05:33:21;;;;;;;;;;;16.60;85.70;;;;;;4992197;28;20153;-68
2023/08/27 05:35:49;;;;;;;;;;;16.60;85.80;;;;;;4991289;28;19933;-68
2023/08/27 05:38:17;;;;;;;;;;;16.60;85.80;;;;;;4990417;28;19957;-69
2023/08/27 05:40:45;;;;;;;;;;;16.60;85.80;;;;;;4990893;28;19961;-68
2023/08/27 05:43:12;;;;;;;;;;;16.60;85.70;;;;;;4990367;28;19930;-69
2023/08/27 05:45:39;;;;;;;;;;;16.60;85.80;;;;;;5007175;28;20316;-69
2023/08/27 05:48:07;;;;;;;;;;;16.70;85.80;;;;;;4991896;28;19932;-69
2023/08/27 05:50:36;;;;;;;;;;;16.70;85.70;;;;;;4991709;28;20024;-70
2023/08/27 05:53:05;;;;;;;;;;;16.70;85.50;;;;;;4971435;28;20035;-69
2023/08/27 05:55:34;;;;;;;;;;;16.80;85.30;;;;;;4978842;28;19930;-70
2023/08/27 05:58:04;;;;;;;;;;;16.80;85.40;;;;;;5004693;28;19925;-69
2023/08/27 06:00:32;;;;;;;;;;;16.80;85.50;;;;;;4989956;28;20405;-68
2023/08/27 06:03:07;;;;;;;;;;;16.80;85.60;;;;;;4992134;28;20378;-69
2023/08/27 06:05:44;;;;;;;;;;;16.90;85.20;;;;;;5005662;28;19926;-69
2023/08/27 06:08:21;;;;;;;;;;;16.90;85.30;;;;;;4988364;28;21172;-69
2023/08/27 06:11:04;;;;;;;;;;;16.90;85.40;;;;;;4991424;28;19976;-69
2023/08/27 06:13:41;;;;;;;;;;;17.00;85.30;;;;;;5006231;28;19979;-70
2023/08/27 06:16:11;;;;;;;;;;;17.10;85.20;;;;;;5006313;28;20417;-69
2023/08/27 06:18:46;;;;;;;;;;;17.10;85.10;;;;;;4989792;28;19930;-70
2023/08/27 06:21:23;;;;;;;;;;;17.10;85.10;;;;;;4991397;28;19930;-69
2023/08/27 06:23:58;;;;;;;;;;;17.10;85.00;;;;;;4989757;28;19926;-70
2023/08/27 06:26:40;;;;;;;;;;;17.10;84.60;;;;;;4990335;28;19936;-69
2023/08/27 06:29:15;;;;;;;;;;;17.10;84.60;;;;;;4972038;28;19969;-68
2023/08/27 06:31:56;;;;;;;;;;;17.20;84.70;;;;;;4971166;28;19930;-69
2023/08/27 06:34:35;;;;;;;;;;;17.20;84.60;;;;;;4990112;28;19948;-71
2023/08/27 06:37:12;;;;;;;;;;;17.30;84.30;;;;;;5005952;28;19925;-69
2023/08/27 06:39:53;;;;;;;;;;;17.30;84.50;;;;;;4975183;28;20338;-69
2023/08/27 06:42:41;;;;;;;;;;;17.40;83.90;;;;;;4972444;28;19930;-69
2023/08/27 06:45:26;;;;;;;;;;;17.40;83.90;;;;;;4969803;28;19989;-69
2023/08/27 06:48:03;;;;;;;;;;;17.50;84.00;;;;;;4985322;28;19948;-70
2023/08/27 06:50:47;;;;;;;;;;;17.50;83.70;;;;;;4972915;28;19961;-71
2023/08/27 06:53:16;;;;;;;;;;;17.60;83.30;;;;;;4972834;28;20024;-71
2023/08/27 06:55:43;;;;;;;;;;;17.60;83.70;;;;;;4978979;28;19925;-71
2023/08/27 06:58:14;;;;;;;;;;;17.50;83.80;;;;;;4990514;28;19936;-71
2023/08/27 07:00:44;;;;;;;;;;;17.50;83.80;;;;;;4978906;28;19958;-70
2023/08/27 07:03:12;;;;;;;;;;;17.50;83.60;;;;;;4988662;28;19941;-71
2023/08/27 07:05:39;;;;;;;;;;;17.60;84.00;;;;;;4989896;28;20332;-69
2023/08/27 07:08:07;;;;;;;;;;;17.50;83.80;;;;;;4995907;28;19949;-71
2023/08/27 07:10:34;;;;;;;;;;;17.60;84.00;;;;;;4989676;28;19936;-70
2023/08/27 07:13:01;;;;;;;;;;;17.60;83.90;;;;;;4973090;28;19930;-70
2023/08/27 07:15:30;;;;;;;;;;;17.60;83.70;;;;;;4990476;28;20349;-69
2023/08/27 07:17:58;;;;;;;;;;;17.60;83.40;;;;;;5006106;28;19933;-70
2023/08/27 07:20:25;;;;;;;;;;;17.70;83.30;;;;;;4968473;28;20278;-70
2023/08/27 07:22:52;;;;;;;;;;;17.70;83.40;;;;;;4970068;28;20001;-70
2023/08/27 07:25:21;;;;;;;;;;;17.80;83.00;;;;;;4973609;28;19949;-70
2023/08/27 07:27:48;;;;;;;;;;;17.80;83.00;;;;;;4978751;28;20385;-70
2023/08/27 07:30:15;;;;;;;;;;;17.80;83.00;;;;;;5003220;28;19965;-72
2023/08/27 07:32:44;;;;;;;;;;;17.80;83.00;;;;;;4989966;28;19930;-70
2023/08/27 07:35:11;;;;;;;;;;;17.70;83.20;;;;;;4989263;28;19933;-70
2023/08/27 07:37:39;;;;;;;;;;;17.80;82.80;;;;;;4990001;28;20416;-71
2023/08/27 07:40:09;;;;;;;;;;;17.90;83.10;;;;;;4989313;28;19930;-71
2023/08/27 07:42:38;;;;;;;;;;;18.00;83.10;;;;;;4990452;28;19980;-70
2023/08/27 07:45:06;;;;;;;;;;;18.00;82.40;;;;;;4988855;28;19925;-70
2023/08/27 07:47:33;;;;;;;;;;;18.00;82.70;;;;;;4988176;28;19926;-70
2023/08/27 07:50:01;;;;;;;;;;;18.00;82.90;;;;;;5004146;28;19929;-69
2023/08/27 07:52:29;;;;;;;;;;;18.00;82.90;;;;;;4990259;28;20369;-69
2023/08/27 07:54:57;;;;;;;;;;;18.00;83.10;;;;;;4988298;28;19964;-70
2023/08/27 07:57:25;;;;;;;;;;;18.00;82.80;;;;;;4979963;28;20301;-69
2023/08/27 07:59:54;;;;;;;;;;;18.10;83.20;;;;;;4989611;28;19930;-70
2023/08/27 08:02:21;;;;;;;;;;;18.10;83.00;;;;;;4989101;28;19925;-77
2023/08/27 08:04:48;;;;;;;;;;;18.10;82.90;;;;;;4971370;28;20028;-77
2023/08/27 08:07:16;;;;;;;;;;;18.20;83.20;;;;;;4990032;28;19930;-78
2023/08/27 08:09:44;;;;;;;;;;;18.30;82.80;;;;;;4990044;28;20017;-77
2023/08/27 08:12:11;;;;;;;;;;;18.40;82.80;;;;;;4988832;28;19932;-77
2023/08/27 08:14:38;;;;;;;;;;;18.50;82.50;;;;;;4989696;28;19984;-78
2023/08/27 08:17:05;;;;;;;;;;;18.60;82.40;;;;;;4989751;28;19926;-78
2023/08/27 08:19:32;;;;;;;;;;;18.60;82.20;;;;;;4988933;28;19926;-78
2023/08/27 08:21:59;;;;;;;;;;;18.80;82.10;;;;;;4989753;28;19926;-76
2023/08/27 08:24:28;;;;;;;;;;;18.80;81.80;;;;;;4988979;28;19934;-76
2023/08/27 08:26:55;;;;;;;;;;;18.90;82.10;;;;;;4990342;28;19980;-76
2023/08/27 08:29:22;;;;;;;;;;;19.00;81.90;;;;;;4990077;28;19929;-77
2023/08/27 08:31:49;;;;;;;;;;;19.10;81.40;;;;;;4989494;28;19930;-77
2023/08/27 08:34:17;;;;;;;;;;;18.90;81.00;;;;;;4989247;28;19929;-77
2023/08/27 08:36:44;;;;;;;;;;;19.10;81.10;;;;;;4989671;28;20040;-78
2023/08/27 08:39:11;;;;;;;;;;;19.30;80.80;;;;;;4987830;28;20064;-78
2023/08/27 08:41:42;;;;;;;;;;;19.50;80.50;;;;;;4990002;28;19957;-77
2023/08/27 08:44:13;;;;;;;;;;;19.50;80.20;;;;;;4989774;28;19925;-77
2023/08/27 08:46:41;;;;;;;;;;;19.60;80.00;;;;;;4989358;28;19942;-78
2023/08/27 08:49:15;;;;;;;;;;;19.60;80.00;;;;;;4989026;28;19999;-76
2023/08/27 08:51:42;;;;;;;;;;;19.50;80.00;;;;;;4989509;28;19925;-79
2023/08/27 08:54:11;;;;;;;;;;;19.60;80.20;;;;;;4987749;28;19932;-79
2023/08/27 08:56:41;;;;;;;;;;;19.50;80.40;;;;;;4989944;28;20440;-77
2023/08/27 08:59:09;;;;;;;;;;;19.60;80.50;;;;;;4989308;28;19949;-79
2023/08/27 09:01:36;;;;;;;;;;;19.60;80.60;;;;;;4989010;28;19974;-78
2023/08/27 09:04:05;;;;;;;;;;;19.60;81.00;;;;;;4988562;28;19930;-76
2023/08/27 09:06:32;;;;;;;;;;;19.60;81.10;;;;;;4989483;28;20000;-78
2023/08/27 09:09:01;;;;;;;;;;;19.70;80.90;;;;;;4989425;28;20400;-77
2023/08/27 09:11:28;;;;;;;;;;;19.80;80.90;;;;;;4989112;28;19932;-73
2023/08/27 09:13:58;;;;;;;;;;;19.90;80.60;;;;;;4989874;28;19930;-72
2023/08/27 09:16:27;;;;;;;;;;;20.00;80.70;;;;;;4988945;28;19930;-72
2023/08/27 09:18:54;;;;;;;;;;;20.00;80.90;;;;;;4989619;28;19940;-75
2023/08/27 09:21:21;;;;;;;;;;;20.20;80.00;;;;;;4988845;28;19949;-73
2023/08/27 09:23:48;;;;;;;;;;;20.40;79.80;;;;;;4989369;28;19929;-72
2023/08/27 09:26:17;;;;;;;;;;;20.50;79.30;;;;;;4989270;28;19929;-74
2023/08/27 09:28:45;;;;;;;;;;;20.60;79.10;;;;;;4988768;28;19965;-72
2023/08/27 09:31:33;;;;;;;;;;;20.60;79.40;;;;;;4988519;28;19973;-74
2023/08/27 09:34:00;;;;;;;;;;;20.60;79.00;;;;;;4988491;28;19957;-74
2023/08/27 09:36:28;;;;;;;;;;;20.60;78.80;;;;;;4987173;28;19992;-74
2023/08/27 09:38:55;;;;;;;;;;;20.70;78.60;;;;;;4988385;28;19929;-73
2023/08/27 09:41:23;;;;;;;;;;;20.90;78.20;;;;;;4988957;28;19940;-74
2023/08/27 09:43:52;;;;;;;;;;;21.10;78.00;;;;;;4989037;28;20000;-74
2023/08/27 09:46:23;;;;;;;;;;;21.30;77.70;;;;;;4987341;28;20209;-73
2023/08/27 09:48:57;;;;;;;;;;;21.40;77.40;;;;;;4989596;28;19936;-72
2023/08/27 09:51:24;;;;;;;;;;;21.80;77.10;;;;;;4987731;28;20378;-74
2023/08/27 09:53:51;;;;;;;;;;;22.00;76.10;;;;;;4987591;28;19938;-74
2023/08/27 09:56:19;;;;;;;;;;;21.90;76.20;;;;;;4988691;28;20340;-72
2023/08/27 09:58:46;;;;;;;;;;;21.80;76.20;;;;;;4989213;28;19951;-72
2023/08/27 10:01:13;;;;;;;;;;;21.80;75.60;;;;;;4987696;28;19930;-73
2023/08/27 10:03:42;;;;;;;;;;;21.80;75.60;;;;;;4988189;28;20439;-72
2023/08/27 10:06:09;;;;;;;;;;;21.90;75.10;;;;;;4988119;28;19937;-74
2023/08/27 10:08:45;;;;;;;;;;;21.90;74.60;;;;;;4989978;28;20431;-73
2023/08/27 10:11:13;;;;;;;;;;;21.90;73.70;;;;;;4991574;28;19940;-73
2023/08/27 10:13:41;;;;;;;;;;;22.00;73.30;;;;;;4992214;28;19929;-73
2023/08/27 10:16:09;;;;;;;;;;;22.10;72.90;;;;;;4991774;28;19930;-72
2023/08/27 10:18:36;;;;;;;;;;;22.20;73.20;;;;;;4991757;28;20451;-73
2023/08/27 10:21:06;;;;;;;;;;;22.30;72.50;;;;;;4991087;28;19933;-66
2023/08/27 10:23:33;;;;;;;;;;;22.40;72.50;;;;;;5007967;28;19941;-66
2023/08/27 10:26:02;;;;;;;;;;;22.40;72.40;;;;;;4992432;28;19926;-67
2023/08/27 10:28:29;;;;;;;;;;;22.50;72.00;;;;;;4998709;28;19930;-66
2023/08/27 10:30:57;;;;;;;;;;;22.50;71.80;;;;;;4991855;28;19930;-66
2023/08/27 10:33:24;;;;;;;;;;;22.40;71.70;;;;;;4990993;28;19926;-67
2023/08/27 10:35:53;;;;;;;;;;;22.40;71.60;;;;;;4992082;28;19972;-67
2023/08/27 10:38:22;;;;;;;;;;;22.30;71.20;;;;;;4991109;28;20000;-66
2023/08/27 10:40:51;;;;;;;;;;;22.40;70.70;;;;;;4992507;28;20391;-67
2023/08/27 10:43:18;;;;;;;;;;;22.30;70.40;;;;;;4991661;28;19980;-66
2023/08/27 10:45:47;;;;;;;;;;;22.20;70.10;;;;;;4992009;28;19925;-67
2023/08/27 10:48:23;;;;;;;;;;;22.20;70.30;;;;;;4990750;28;19930;-67
2023/08/27 10:50:51;;;;;;;;;;;22.10;70.40;;;;;;4992056;28;19957;-66
2023/08/27 10:53:20;;;;;;;;;;;22.10;70.50;;;;;;4991030;28;19926;-68
2023/08/27 10:55:50;;;;;;;;;;;22.10;70.10;;;;;;4992178;28;19926;-67
2023/08/27 10:58:17;;;;;;;;;;;22.30;69.40;;;;;;4990973;28;19929;-67
2023/08/27 11:01:03;;;;;;;;;;;22.40;69.10;;;;;;4975643;28;20374;-67
2023/08/27 11:03:51;;;;;;;;;;;22.50;68.80;;;;;;4978752;28;19926;-67
2023/08/27 11:06:20;;;;;;;;;;;22.60;68.90;;;;;;4976670;28;20333;-67
2023/08/27 11:08:50;;;;;;;;;;;22.70;68.30;;;;;;4991398;28;20779;-67
2023/08/27 11:11:23;;;;;;;;;;;22.90;68.30;;;;;;4990741;28;19952;-67
2023/08/27 11:14:01;;;;;;;;;;;23.00;67.90;;;;;;4991157;28;19976;-67
2023/08/27 11:16:30;;;;;;;;;;;23.00;66.80;;;;;;4990321;28;19933;-67
2023/08/27 11:18:57;;;;;;;;;;;23.00;66.60;;;;;;4991543;28;19969;-67
2023/08/27 11:21:39;;;;;;;;;;;22.90;66.40;;;;;;4989644;28;19945;-66
2023/08/27 11:24:16;;;;;;;;;;;22.90;66.50;;;;;;4989671;28;19930;-67
2023/08/27 11:26:46;;;;;;;;;;;22.90;66.30;;;;;;4990680;28;19930;-68
2023/08/27 11:29:13;;;;;;;;;;;22.90;66.60;;;;;;4990271;28;19965;-66
2023/08/27 11:31:41;;;;;;;;;;;22.90;66.50;;;;;;4990861;28;20008;-69
2023/08/27 11:34:08;;;;;;;;;;;22.90;64.60;;;;;;4989714;28;19926;-70
2023/08/27 11:36:35;;;;;;;;;;;22.90;64.60;;;;;;4989546;28;19930;-68
2023/08/27 11:39:05;;;;;;;;;;;22.90;64.10;;;;;;4990672;28;19933;-69
2023/08/27 11:41:37;;;;;;;;;;;22.90;63.90;;;;;;4990881;28;20373;-69
2023/08/27 11:44:06;;;;;;;;;;;22.80;64.30;;;;;;4990755;28;19926;-68
2023/08/27 11:46:34;;;;;;;;;;;22.80;63.80;;;;;;4990444;28;20373;-69
2023/08/27 11:49:01;;;;;;;;;;;22.90;63.30;;;;;;4991218;28;19925;-69
2023/08/27 11:51:28;;;;;;;;;;;23.00;63.50;;;;;;4990005;28;19934;-69
2023/08/27 11:53:55;;;;;;;;;;;23.00;63.40;;;;;;4990595;28;19945;-70
2023/08/27 11:56:23;;;;;;;;;;;23.10;63.20;;;;;;4990044;28;19929;-69
2023/08/27 11:58:51;;;;;;;;;;;23.10;63.30;;;;;;4990049;28;20472;-70
2023/08/27 12:01:20;;;;;;;;;;;23.20;63.40;;;;;;4990292;28;19932;-70
2023/08/27 12:03:49;;;;;;;;;;;23.20;62.90;;;;;;4989133;28;20300;-70
2023/08/27 12:06:20;;;;;;;;;;;23.20;63.30;;;;;;4988159;28;19925;-68
2023/08/27 12:08:50;;;;;;;;;;;23.10;63.10;;;;;;4989673;28;19925;-69
2023/08/27 12:11:19;;;;;;;;;;;23.20;62.90;;;;;;4989442;28;19930;-69
2023/08/27 12:13:48;;;;;;;;;;;23.20;63.10;;;;;;4990115;28;19926;-68
2023/08/27 12:16:15;;;;;;;;;;;23.10;63.00;;;;;;4990356;28;20013;-68
2023/08/27 12:18:47;;;;;;;;;;;23.00;63.20;;;;;;4990447;28;20029;-68
2023/08/27 12:21:15;;;;;;;;;;;23.10;63.00;;;;;;4989956;28;19934;-69
2023/08/27 12:23:51;;;;;;;;;;;23.00;63.30;;;;;;4989777;28;19926;-68
2023/08/27 12:26:19;;;;;;;;;;;23.00;63.40;;;;;;4989971;28;19929;-69
2023/08/27 12:28:52;;;;;;;;;;;23.00;63.60;;;;;;4989052;28;19926;-69
2023/08/27 12:31:22;;;;;;;;;;;23.10;63.40;;;;;;4989686;28;20469;-70
2023/08/27 12:33:50;;;;;;;;;;;23.10;63.00;;;;;;4987978;28;19965;-69
2023/08/27 12:36:17;;;;;;;;;;;23.20;62.90;;;;;;4988646;28;19930;-71
2023/08/27 12:38:45;;;;;;;;;;;23.20;63.20;;;;;;4989157;28;20397;-70
2023/08/27 12:41:13;;;;;;;;;;;23.20;63.20;;;;;;4989626;28;19984;-71
2023/08/27 12:43:40;;;;;;;;;;;23.20;62.80;;;;;;4989404;28;19926;-70
2023/08/27 12:46:07;;;;;;;;;;;23.20;62.60;;;;;;4989694;28;19941;-71
2023/08/27 12:48:34;;;;;;;;;;;23.20;62.90;;;;;;4989654;28;19949;-70
2023/08/27 12:51:04;;;;;;;;;;;23.10;62.10;;;;;;4989734;28;19925;-69
2023/08/27 12:53:31;;;;;;;;;;;23.00;62.10;;;;;;4989476;28;20466;-70
2023/08/27 12:55:58;;;;;;;;;;;22.90;61.20;;;;;;4989006;28;20408;-70
2023/08/27 12:58:25;;;;;;;;;;;22.70;61.20;;;;;;4989237;28;19926;-70
2023/08/27 13:00:52;;;;;;;;;;;22.60;61.60;;;;;;4988835;28;19941;-70
2023/08/27 13:03:19;;;;;;;;;;;22.60;61.90;;;;;;4989280;28;19925;-71
2023/08/27 13:05:47;;;;;;;;;;;22.60;63.60;;;;;;4989399;28;20020;-71
2023/08/27 13:08:15;;;;;;;;;;;22.50;64.10;;;;;;4988687;28;19930;-70
2023/08/27 13:10:42;;;;;;;;;;;22.60;64.90;;;;;;4989076;28;19930;-71
2023/08/27 13:13:09;;;;;;;;;;;22.50;65.50;;;;;;4988751;28;19930;-70
2023/08/27 13:15:37;;;;;;;;;;;22.40;66.20;;;;;;4988580;28;20404;-72
2023/08/27 13:18:04;;;;;;;;;;;22.40;66.70;;;;;;4989334;28;19936;-71
2023/08/27 13:20:31;;;;;;;;;;;22.30;67.30;;;;;;4989255;28;20297;-71
2023/08/27 13:22:58;;;;;;;;;;;22.10;68.10;;;;;;4988476;28;19932;-72
2023/08/27 13:25:27;;;;;;;;;;;22.10;69.10;;;;;;4989095;28;19980;-71
2023/08/27 13:27:55;;;;;;;;;;;22.00;69.90;;;;;;4988962;28;20385;-70
2023/08/27 13:30:24;;;;;;;;;;;21.90;70.70;;;;;;4989403;28;20298;-71
2023/08/27 13:32:51;;;;;;;;;;;21.70;71.10;;;;;;4988462;28;19933;-71
2023/08/27 13:35:18;;;;;;;;;;;21.70;71.80;;;;;;4988393;28;19930;-70
2023/08/27 13:37:45;;;;;;;;;;;21.60;72.40;;;;;;4988763;28;20386;-72
2023/08/27 13:40:12;;;;;;;;;;;21.60;72.60;;;;;;4987500;28;19930;-70
2023/08/27 13:42:41;;;;;;;;;;;21.60;73.10;;;;;;4988378;28;19930;-70
2023/08/27 13:45:08;;;;;;;;;;;21.60;73.20;;;;;;4992144;28;19989;-72
2023/08/27 13:47:35;;;;;;;;;;;21.60;72.60;;;;;;4992896;28;20004;-71
2023/08/27 13:50:02;;;;;;;;;;;21.60;71.30;;;;;;4991922;28;19940;-71
2023/08/27 13:52:30;;;;;;;;;;;21.60;71.30;;;;;;4992847;28;19973;-69
2023/08/27 13:54:57;;;;;;;;;;;21.50;70.90;;;;;;4992224;28;19930;-69
2023/08/27 13:57:24;;;;;;;;;;;21.50;70.30;;;;;;4992752;28;19961;-70
2023/08/27 13:59:52;;;;;;;;;;;21.40;70.60;;;;;;4991904;28;19983;-70
2023/08/27 14:02:20;;;;;;;;;;;21.40;71.20;;;;;;5006771;28;20037;-69
2023/08/27 14:04:47;;;;;;;;;;;21.50;70.60;;;;;;4992188;28;19953;-69
2023/08/27 14:07:14;;;;;;;;;;;21.50;70.40;;;;;;4991078;28;19930;-69
2023/08/27 14:09:41;;;;;;;;;;;21.60;70.60;;;;;;4992242;28;20181;-69
2023/08/27 14:12:09;;;;;;;;;;;21.60;70.60;;;;;;4992214;28;19930;-69
2023/08/27 14:14:36;;;;;;;;;;;21.60;70.20;;;;;;4992344;28;20000;-70
2023/08/27 14:17:04;;;;;;;;;;;21.50;68.90;;;;;;4991344;28;20032;-69
2023/08/27 14:19:32;;;;;;;;;;;21.40;69.00;;;;;;4991711;28;19936;-69
2023/08/27 14:21:59;;;;;;;;;;;21.40;69.20;;;;;;4992110;28;20436;-69
2023/08/27 14:24:26;;;;;;;;;;;21.40;68.70;;;;;;4991469;28;19926;-69